Aviation Digital Data Service (ADDS)

Output produced by METARs form (1705 UTC 24 April 2017)
found at http://www.aviationweather.gov/adds/metars/
 
FQBR 241600Z /////KT 7000 SCT018 BKN030 OVC070 20/18 Q1019 RMK -DZ
TAF FQBR 241000Z 2412/2518 19012KT 9999 BKN020 
     PROB30 2412/2418 5000 -RADZ SCT015 BKN020 
     BECMG 2418/2420 24008KT BKN020 
     BECMG 2512/2514 16012KT TN19/2502ZTX25/2512Z
       
FQCH 241600Z /////KT 9999 SCT012 BKN020 16/16 Q1024
TAF FQCH 241000Z 2412/2512 12010KT 9999 BKN015 
     BECMG 2420/2422 VRB02KT 
     BECMG 2506/2508 17008KT TN15/2502ZTX19/2512Z
       
FQIN 241400Z 20005KT 9999 SCT020 BKN030 25/16 Q1018
TAF FQIN 241000Z 2412/2512 15012KT 9999 BKN020 
     BECMG 2418/2420 21008KT TN20/2502ZTX27/2512Z
       
FQLC 241600Z 14006KT 9999 FEW013 BKN017 FEW020CB 20/17 Q1022 RMK CB TO ALL/D
TAF FQLC 241000Z 2412/2512 08010KT 9999 BKN015 FEW020CB 
     BECMG 2418/2420 14006KT BKN015 
     BECMG 2500/2502 VRB02KT 
     BECMG 2506/2508 09008KT TN14/2502ZTX24/2512Z
       
FQMA 241700Z 13008KT 9999 SCT020 21/17 Q1021 NOSIG
TAF FQMA 241000Z 2412/2518 14012KT 9999 BKN020 
     BECMG 2418/2420 21008KT 
     BECMG 2512/2514 14012KT TN19/2502ZTX27/2512Z
       
TAF FQNC 241000Z 2412/2512 16008KT 9999 BKN020 
     BECMG 2418/2420 22008KT TN20/2502ZTX30/2512Z
       
FQNP 241700Z 19006KT 150V210 9999 SCT020 BKN100 24/21 Q1017
TAF FQNP 241000Z 2412/2518 15012KT 9999 BKN020 
     BECMG 2418/2420 22008KT 
     BECMG 2512/2514 16012KT TN21/2502ZTX29/2512Z
       
FQPB 241600Z 14007KT 9999 FEW020 SCT100 27/22 Q1015
TAF FQPB 241000Z 2412/2512 15012KT 9999 SCT020 
     BECMG 2418/2420 20008KT TN18/2502ZTX30/2512Z
       
FQQL 241700Z 23004KT 9000 SCT009 BKN015 BKN090 22/21 Q1018
TAF FQQL 241000Z 2412/2512 17012KT 9999 BKN020 
     BECMG 2420/2422 24008KT TN20/2502ZTX28/2512Z
       
FQTT 241700Z 17014KT 9999 FEW015 BKN020 SCT090 22/19 Q1019
TAF FQTT 241000Z 2412/2512 12012KT 9999 BKN020 FEW025CB 
     BECMG 2420/2422 VRB02KT 
     BECMG 2506/2508 17008KT TN20/2502ZTX32/2512Z
       
FQVL 241200Z 25008KT 9999 BKN020 BKN025 23/20 Q1018
TAF FQVL 241000Z 2412/2512 16012KT 9999 BKN020 
     BECMG 2418/2420 22008KT TN19/2502ZTX25/2512Z